createdAt,value
2022-10-24T00:01:08.308Z,1.83
2022-10-24T00:03:34.627Z,1.60
2022-10-24T00:06:00.944Z,1.60
2022-10-24T00:08:27.276Z,2.00
2022-10-24T00:10:53.568Z,1.83
2022-10-24T00:13:19.934Z,1.48
2022-10-24T00:15:47.245Z,1.85
2022-10-24T00:18:13.714Z,1.58
2022-10-24T00:20:40.381Z,2.15
2022-10-24T00:23:06.898Z,1.70
2022-10-24T00:25:33.203Z,1.63
2022-10-24T00:27:59.552Z,2.00
2022-10-24T00:30:25.948Z,1.80
2022-10-24T00:32:52.460Z,2.25
2022-10-24T00:35:19.016Z,1.50
2022-10-24T00:37:45.537Z,2.20
2022-10-24T00:40:14.351Z,1.45
2022-10-24T00:42:40.662Z,1.42
2022-10-24T00:45:25.975Z,2.20
2022-10-24T00:47:52.416Z,1.37
2022-10-24T00:50:18.735Z,1.45
2022-10-24T00:52:46.926Z,1.58
2022-10-24T00:55:14.221Z,1.77
2022-10-24T00:57:44.746Z,1.73
2022-10-24T01:00:14.044Z,1.48
2022-10-24T01:02:40.453Z,1.20
2022-10-24T01:05:07.188Z,1.27
2022-10-24T01:07:51.489Z,1.50
2022-10-24T01:10:27.100Z,1.55
2022-10-24T01:13:09.415Z,1.77
2022-10-24T01:15:41.822Z,1.70
2022-10-24T01:18:14.132Z,1.42
2022-10-24T01:20:59.281Z,2.33
2022-10-24T01:23:47.206Z,1.00
2022-10-24T01:26:26.797Z,1.65
2022-10-24T01:28:57.296Z,1.17
2022-10-24T01:31:43.888Z,0.88
2022-10-24T01:34:13.589Z,1.25
2022-10-24T01:36:45.825Z,1.48
2022-10-24T01:39:15.104Z,2.15
2022-10-24T01:41:42.424Z,0.85
2022-10-24T01:44:14.681Z,1.10
2022-10-24T01:46:42.273Z,1.23
2022-10-24T01:49:17.453Z,1.75
2022-10-24T01:51:44.622Z,1.23
2022-10-24T01:54:11.644Z,0.80
2022-10-24T01:56:38.125Z,1.27
2022-10-24T01:59:08.619Z,0.90
2022-10-24T02:01:35.742Z,1.17
2022-10-24T02:04:05.926Z,1.65
2022-10-24T02:06:34.014Z,0.90
2022-10-24T02:11:34.914Z,0.98
2022-10-24T02:14:19.194Z,1.05
2022-10-24T02:16:45.790Z,0.90
2022-10-24T02:19:13.793Z,1.50
2022-10-24T02:21:53.211Z,0.88
2022-10-24T02:24:33.542Z,1.17
2022-10-24T02:27:06.779Z,1.00
2022-10-24T02:29:35.750Z,0.95
2022-10-24T02:32:05.614Z,1.08
2022-10-24T02:34:33.742Z,1.48
2022-10-24T02:37:00.858Z,1.10
2022-10-24T02:39:28.240Z,1.17
2022-10-24T02:41:55.921Z,1.00
2022-10-24T02:44:22.686Z,1.02
2022-10-24T02:46:50.650Z,1.60
2022-10-24T02:49:17.032Z,1.10
2022-10-24T02:51:44.428Z,1.20
2022-10-24T02:54:11.177Z,1.00
2022-10-24T02:56:39.935Z,0.98
2022-10-24T02:59:06.313Z,1.00
2022-10-24T03:01:32.897Z,1.20
2022-10-24T03:03:59.310Z,0.95
2022-10-24T03:06:25.671Z,0.95
2022-10-24T03:08:51.990Z,0.88
2022-10-24T03:11:18.357Z,0.93
2022-10-24T03:13:44.740Z,1.00
2022-10-24T03:16:13.927Z,0.55
2022-10-24T03:18:40.730Z,1.00
2022-10-24T03:21:07.147Z,1.10
2022-10-24T03:23:33.454Z,1.50
2022-10-24T03:25:59.809Z,0.90
2022-10-24T03:28:26.394Z,0.82
2022-10-24T03:30:53.298Z,0.90
2022-10-24T03:33:19.744Z,1.30
2022-10-24T03:35:46.083Z,1.25
2022-10-24T03:38:12.465Z,0.90
2022-10-24T03:40:38.882Z,1.20
2022-10-24T03:43:05.272Z,0.93
2022-10-24T03:45:31.603Z,0.73
2022-10-24T03:47:57.911Z,1.20
2022-10-24T03:50:24.265Z,1.25
2022-10-24T03:52:50.703Z,1.33
2022-10-24T03:55:17.137Z,1.00
2022-10-24T03:57:43.925Z,1.10
2022-10-24T04:00:10.691Z,1.00
2022-10-24T04:02:40.207Z,0.77
2022-10-24T04:05:09.471Z,0.98
2022-10-24T04:07:35.858Z,0.98
2022-10-24T04:10:02.181Z,1.40
2022-10-24T04:12:28.655Z,0.77
2022-10-24T04:14:55.005Z,1.10
2022-10-24T04:17:21.444Z,1.52
2022-10-24T04:19:47.872Z,1.52
2022-10-24T04:22:14.253Z,0.98
2022-10-24T04:24:40.601Z,0.80
2022-10-24T04:27:07.622Z,1.00
2022-10-24T04:29:34.528Z,1.10
2022-10-24T04:32:00.997Z,1.50
2022-10-24T04:34:27.348Z,0.98
2022-10-24T04:36:53.739Z,1.00
2022-10-24T04:39:20.282Z,1.00
2022-10-24T04:41:46.702Z,2.72
2022-10-24T04:44:13.233Z,1.10
2022-10-24T04:46:39.582Z,1.17
2022-10-24T04:49:06.033Z,1.02
2022-10-24T04:51:32.355Z,1.00
2022-10-24T04:53:58.716Z,0.90
2022-10-24T04:56:26.809Z,1.05
2022-10-24T04:58:53.184Z,1.08
2022-10-24T05:01:19.510Z,1.15
2022-10-24T05:03:45.864Z,1.45
2022-10-24T05:06:12.248Z,1.10
2022-10-24T05:08:38.669Z,1.33
2022-10-24T05:11:05.071Z,1.10
2022-10-24T05:13:34.344Z,1.02
2022-10-24T05:16:03.069Z,1.10
2022-10-24T05:18:29.375Z,0.80
2022-10-24T05:20:56.677Z,0.75
2022-10-24T05:23:23.472Z,2.70
2022-10-24T05:25:49.846Z,0.80
2022-10-24T05:28:16.254Z,1.05
2022-10-24T05:30:43.352Z,1.42
2022-10-24T05:33:09.820Z,0.95
2022-10-24T05:35:36.222Z,1.20
2022-10-24T05:38:03.000Z,1.35
2022-10-24T05:40:29.404Z,1.13
2022-10-24T05:42:55.911Z,0.90
2022-10-24T05:45:22.334Z,0.93
2022-10-24T05:47:48.809Z,1.30
2022-10-24T05:50:15.578Z,0.90
2022-10-24T05:52:46.201Z,0.90
2022-10-24T05:55:16.992Z,1.00
2022-10-24T05:57:44.681Z,1.05
2022-10-24T06:00:13.138Z,0.90
2022-10-24T06:02:40.350Z,1.05
2022-10-24T06:05:07.707Z,1.08
2022-10-24T06:07:35.190Z,0.73
2022-10-24T06:10:02.393Z,1.08
2022-10-24T06:12:28.765Z,0.95
2022-10-24T06:14:55.928Z,1.17
2022-10-24T06:17:22.326Z,1.02
2022-10-24T06:19:50.931Z,0.93
2022-10-24T06:22:17.871Z,1.20
2022-10-24T06:24:44.247Z,1.10
2022-10-24T06:27:10.789Z,0.93
2022-10-24T06:29:37.178Z,0.93
2022-10-24T06:32:03.995Z,1.17
2022-10-24T06:34:30.418Z,0.93
2022-10-24T06:36:56.865Z,1.00
2022-10-24T06:39:23.229Z,0.90
2022-10-24T06:41:49.531Z,1.10
2022-10-24T06:44:15.995Z,1.10
2022-10-24T06:46:42.464Z,1.38
2022-10-24T06:49:09.922Z,1.17
2022-10-24T06:51:36.377Z,1.10
2022-10-24T06:54:02.792Z,1.20
2022-10-24T06:56:29.174Z,1.30
2022-10-24T06:58:55.574Z,1.05
2022-10-24T07:01:23.127Z,0.70
2022-10-24T07:03:49.928Z,1.27
2022-10-24T07:06:34.246Z,1.13
2022-10-24T07:09:01.526Z,0.73
2022-10-24T07:11:28.404Z,0.88
2022-10-24T07:13:57.949Z,1.00
2022-10-24T07:16:27.233Z,0.90
2022-10-24T07:18:53.821Z,1.00
2022-10-24T07:21:28.000Z,0.60
2022-10-24T07:23:54.825Z,1.00
2022-10-24T07:26:21.586Z,0.95
2022-10-24T07:28:48.427Z,1.02
2022-10-24T07:31:17.826Z,1.38
2022-10-24T07:33:44.247Z,1.05
2022-10-24T07:36:10.684Z,0.73
2022-10-24T07:38:37.498Z,0.65
2022-10-24T07:41:04.684Z,0.88
2022-10-24T07:43:31.182Z,0.93
2022-10-24T07:45:57.559Z,0.98
2022-10-24T07:48:23.890Z,0.75
2022-10-24T07:50:50.275Z,0.80
2022-10-24T07:53:16.629Z,1.73
2022-10-24T07:55:43.656Z,1.15
2022-10-24T07:58:11.712Z,0.90
2022-10-24T08:00:42.563Z,1.42
2022-10-24T08:03:11.430Z,1.02
2022-10-24T08:05:39.134Z,0.90
2022-10-24T08:08:30.649Z,1.00
2022-10-24T08:10:52.174Z,1.00
2022-10-24T08:13:18.512Z,1.10
2022-10-24T08:15:44.847Z,0.95
2022-10-24T08:18:11.269Z,0.85
2022-10-24T08:20:37.620Z,0.88
2022-10-24T08:23:03.989Z,0.73
2022-10-24T08:25:30.378Z,0.82
2022-10-24T08:27:56.719Z,0.80
2022-10-24T08:30:23.269Z,1.23
2022-10-24T08:32:49.689Z,0.80
2022-10-24T08:35:17.680Z,1.15
2022-10-24T08:37:44.002Z,1.23
2022-10-24T08:40:16.494Z,0.80
2022-10-24T08:42:44.010Z,1.23
2022-10-24T08:45:17.222Z,0.77
2022-10-24T08:47:46.775Z,0.70
2022-10-24T08:50:19.313Z,0.50
2022-10-24T08:52:51.693Z,0.90
2022-10-24T08:55:30.917Z,1.00
2022-10-24T08:58:05.288Z,0.73
2022-10-24T09:00:36.579Z,0.70
2022-10-24T09:03:02.999Z,0.98
2022-10-24T09:05:37.372Z,1.10
2022-10-24T09:08:23.029Z,1.10
2022-10-24T09:10:54.824Z,1.42
2022-10-24T09:13:23.836Z,0.73
2022-10-24T09:15:50.380Z,0.90
2022-10-24T09:18:27.450Z,0.95
2022-10-24T09:20:54.062Z,0.93
2022-10-24T09:23:21.922Z,1.38
2022-10-24T09:25:49.889Z,1.10
2022-10-24T09:28:16.604Z,1.08
2022-10-24T09:30:42.939Z,1.35
2022-10-24T09:33:24.809Z,0.93
2022-10-24T09:35:51.940Z,0.80
2022-10-24T09:38:27.505Z,1.15
2022-10-24T09:40:55.280Z,1.05
2022-10-24T09:43:23.559Z,1.88
2022-10-24T09:45:58.938Z,0.90
2022-10-24T09:48:30.310Z,1.02
2022-10-24T09:50:57.709Z,0.95
2022-10-24T09:53:24.540Z,0.98
2022-10-24T09:55:53.861Z,0.98
2022-10-24T09:58:21.552Z,1.00
2022-10-24T10:00:58.812Z,0.95
2022-10-24T10:03:26.475Z,1.15
2022-10-24T10:05:54.530Z,1.10
2022-10-24T10:08:22.924Z,1.25
2022-10-24T10:10:58.345Z,1.58
2022-10-24T10:13:27.302Z,1.40
2022-10-24T10:16:04.034Z,0.70
2022-10-24T10:18:33.520Z,1.50
2022-10-24T10:21:00.081Z,0.90
2022-10-24T10:23:26.564Z,0.68
2022-10-24T10:26:02.097Z,0.75
2022-10-24T10:28:28.621Z,0.88
2022-10-24T10:30:58.185Z,0.85
2022-10-24T10:36:32.592Z,0.90
2022-10-24T10:38:59.066Z,0.98
2022-10-24T10:41:25.438Z,1.17
2022-10-24T10:44:03.229Z,0.70
2022-10-24T10:46:43.168Z,1.02
2022-10-24T10:49:15.336Z,0.70
2022-10-24T10:51:44.796Z,0.82
2022-10-24T10:54:18.581Z,1.00
2022-10-24T10:56:51.063Z,1.02
2022-10-24T10:59:32.217Z,1.15
2022-10-24T11:01:58.741Z,0.80
2022-10-24T11:04:25.153Z,0.50
2022-10-24T11:07:10.025Z,0.35
2022-10-24T11:09:47.538Z,0.52
2022-10-24T11:12:23.229Z,0.50
2022-10-24T11:15:28.248Z,0.57
2022-10-24T11:18:16.750Z,0.50
2022-10-24T11:20:51.194Z,1.05
2022-10-24T11:23:25.366Z,1.30
2022-10-24T11:25:54.431Z,0.90
2022-10-24T11:28:23.512Z,0.88
2022-10-24T11:30:56.612Z,1.00
2022-10-24T11:33:27.920Z,0.90
2022-10-24T11:36:03.215Z,0.82
2022-10-24T11:38:30.454Z,0.47
2022-10-24T11:41:00.978Z,0.85
2022-10-24T11:43:30.781Z,0.80
2022-10-24T11:46:01.825Z,2.47
2022-10-24T11:48:46.261Z,0.60
2022-10-24T11:51:29.488Z,0.85
2022-10-24T11:53:58.455Z,0.75
2022-10-24T11:56:31.053Z,0.70
2022-10-24T11:59:07.439Z,0.82
2022-10-24T12:01:33.806Z,0.65
2022-10-24T12:04:18.802Z,0.70
2022-10-24T12:06:45.612Z,0.80
2022-10-24T12:09:21.196Z,0.57
2022-10-24T12:12:06.413Z,0.75
2022-10-24T12:14:48.152Z,1.10
2022-10-24T12:17:15.835Z,0.60
2022-10-24T12:19:42.885Z,0.73
2022-10-24T12:22:14.444Z,0.68
2022-10-24T12:24:41.162Z,0.93
2022-10-24T12:27:30.382Z,0.80
2022-10-24T12:30:01.051Z,0.60
2022-10-24T12:32:39.189Z,0.60
2022-10-24T12:35:30.246Z,0.43
2022-10-24T12:37:57.481Z,0.50
2022-10-24T12:40:42.670Z,0.80
2022-10-24T12:43:14.198Z,1.25
2022-10-24T12:45:40.545Z,0.68
2022-10-24T12:48:14.492Z,0.50
2022-10-24T12:50:40.832Z,0.50
2022-10-24T12:53:17.659Z,0.57
2022-10-24T12:55:43.930Z,0.40
2022-10-24T12:58:21.818Z,0.50
2022-10-24T13:00:58.601Z,0.70
2022-10-24T13:03:43.603Z,0.80
2022-10-24T13:06:14.552Z,1.30
2022-10-24T13:08:56.061Z,0.90
2022-10-24T13:11:37.411Z,0.80
2022-10-24T13:14:22.858Z,0.65
2022-10-24T13:16:58.890Z,0.80
2022-10-24T13:19:26.571Z,0.80
2022-10-24T13:21:57.425Z,0.95
2022-10-24T13:24:35.183Z,0.82
2022-10-24T13:27:12.656Z,1.23
2022-10-24T13:29:39.539Z,0.90
2022-10-24T13:32:05.850Z,1.25
2022-10-24T13:34:38.028Z,1.02
2022-10-24T13:37:07.573Z,0.70
2022-10-24T13:39:39.495Z,0.52
2022-10-24T13:42:18.947Z,1.20
2022-10-24T13:44:48.375Z,0.82
2022-10-24T13:47:33.370Z,0.93
2022-10-24T13:50:05.241Z,0.90
2022-10-24T13:52:49.294Z,1.25
2022-10-24T13:55:24.916Z,1.45
2022-10-24T13:58:08.389Z,0.60
2022-10-24T14:00:36.954Z,1.08
2022-10-24T14:03:04.542Z,0.73
2022-10-24T14:05:36.174Z,1.05
2022-10-24T14:08:03.710Z,1.10
2022-10-24T14:10:30.465Z,1.17
2022-10-24T14:12:57.274Z,1.52
2022-10-24T14:15:33.181Z,1.90
2022-10-24T14:18:04.141Z,1.27
2022-10-24T14:20:32.521Z,1.17
2022-10-24T14:22:59.221Z,1.50
2022-10-24T14:25:25.739Z,1.17
2022-10-24T14:27:53.518Z,1.30
2022-10-24T14:30:21.470Z,1.42
2022-10-24T14:32:48.083Z,2.13
2022-10-24T14:35:14.825Z,1.63
2022-10-24T14:37:41.583Z,1.65
2022-10-24T14:40:15.332Z,1.80
2022-10-24T14:42:41.808Z,1.73
2022-10-24T14:45:21.819Z,1.63
2022-10-24T14:47:52.927Z,0.82
2022-10-24T14:50:37.883Z,1.33
2022-10-24T14:53:04.577Z,1.60
2022-10-24T14:55:31.199Z,1.77
2022-10-24T14:57:57.559Z,2.17
2022-10-24T15:00:25.105Z,2.00
2022-10-24T15:02:52.468Z,1.52
2022-10-24T15:05:24.664Z,1.50
2022-10-24T15:08:20.419Z,1.80
2022-10-24T15:10:43.870Z,1.65
2022-10-24T15:13:13.049Z,1.20
2022-10-24T15:15:56.525Z,1.77
2022-10-24T15:18:22.907Z,1.50
2022-10-24T15:20:52.556Z,1.45
2022-10-24T15:23:21.013Z,1.42
2022-10-24T15:25:57.426Z,1.20
2022-10-24T15:28:45.170Z,1.65
2022-10-24T15:31:12.685Z,1.23
2022-10-24T15:36:06.795Z,1.95
2022-10-24T15:38:35.612Z,1.58
2022-10-24T15:41:04.052Z,1.48
2022-10-24T15:43:30.480Z,1.17
2022-10-24T15:45:57.723Z,1.60
2022-10-24T15:48:24.321Z,1.27
2022-10-24T15:50:50.709Z,1.75
2022-10-24T15:53:18.722Z,1.02
2022-10-24T15:55:45.232Z,1.67
2022-10-24T15:58:12.564Z,1.48
2022-10-24T16:00:39.638Z,1.52
2022-10-24T16:03:07.964Z,2.05
2022-10-24T16:05:38.929Z,2.40
2022-10-24T16:08:05.472Z,1.60
2022-10-24T16:10:31.881Z,1.65
2022-10-24T16:12:58.219Z,3.25
2022-10-24T16:15:27.152Z,1.70
2022-10-24T16:17:53.536Z,2.25
2022-10-24T16:20:20.203Z,2.88
2022-10-24T16:22:46.983Z,3.08
2022-10-24T16:25:23.759Z,1.83
2022-10-24T16:27:50.553Z,2.38
2022-10-24T16:30:18.886Z,2.85
2022-10-24T16:32:45.873Z,2.35
2022-10-24T16:35:21.385Z,2.17
2022-10-24T16:37:47.805Z,2.22
2022-10-24T16:40:14.198Z,2.35
2022-10-24T16:42:40.523Z,2.17
2022-10-24T16:45:07.283Z,2.70
2022-10-24T16:47:33.656Z,2.25
2022-10-24T16:50:00.234Z,2.67
2022-10-24T16:52:27.166Z,1.95
2022-10-24T16:54:53.674Z,2.22
2022-10-24T16:57:20.711Z,2.70
2022-10-24T16:59:47.570Z,2.45
2022-10-24T17:02:14.496Z,2.55
2022-10-24T17:04:42.803Z,2.50
2022-10-24T17:07:09.679Z,2.47
2022-10-24T17:09:35.962Z,2.28
2022-10-24T17:12:02.540Z,2.72
2022-10-24T17:14:29.474Z,2.53
2022-10-24T17:16:55.896Z,2.60
2022-10-24T17:19:22.268Z,2.10
2022-10-24T17:21:49.883Z,1.83
2022-10-24T17:24:21.250Z,2.40
2022-10-24T17:26:47.954Z,2.67
2022-10-24T17:29:17.704Z,2.13
2022-10-24T17:31:44.131Z,2.50
2022-10-24T17:34:10.705Z,2.50
2022-10-24T17:36:38.049Z,2.22
2022-10-24T17:39:14.133Z,2.63
2022-10-24T17:41:41.252Z,2.53
2022-10-24T17:44:12.589Z,2.30
2022-10-24T17:46:39.063Z,2.38
2022-10-24T17:49:05.457Z,1.85
2022-10-24T17:51:37.045Z,2.63
2022-10-24T17:54:05.862Z,2.45
2022-10-24T17:56:32.767Z,2.40
2022-10-24T17:58:59.142Z,2.78
2022-10-24T18:01:25.667Z,2.17
2022-10-24T18:03:52.197Z,2.15
2022-10-24T18:06:18.573Z,2.10
2022-10-24T18:08:45.223Z,2.20
2022-10-24T18:11:12.860Z,2.83
2022-10-24T18:13:39.573Z,2.55
2022-10-24T18:16:09.654Z,1.52
2022-10-24T18:18:36.230Z,1.63
2022-10-24T18:21:10.470Z,2.03
2022-10-24T18:23:37.209Z,1.95
2022-10-24T18:26:07.663Z,1.92
2022-10-24T18:28:36.886Z,1.73
2022-10-24T18:31:12.755Z,1.50
2022-10-24T18:33:39.790Z,1.33
2022-10-24T18:36:07.337Z,1.92
2022-10-24T18:38:34.884Z,2.55
2022-10-24T18:41:01.433Z,2.92
2022-10-24T18:43:27.846Z,1.63
2022-10-24T18:45:54.313Z,2.03
2022-10-24T18:48:20.999Z,1.75
2022-10-24T18:50:49.445Z,1.17
2022-10-24T18:53:22.284Z,1.75
2022-10-24T18:55:49.178Z,1.30
2022-10-24T18:58:19.042Z,1.20
2022-10-24T19:00:46.109Z,1.13
2022-10-24T19:03:29.367Z,1.23
2022-10-24T19:05:55.712Z,1.42
2022-10-24T19:08:23.186Z,1.30
2022-10-24T19:10:51.759Z,1.50
2022-10-24T19:13:18.320Z,1.30
2022-10-24T19:15:47.291Z,1.60
2022-10-24T19:18:15.437Z,1.60
2022-10-24T19:20:42.429Z,1.23
2022-10-24T19:23:12.755Z,1.73
2022-10-24T19:25:39.298Z,1.38
2022-10-24T19:28:05.734Z,1.02
2022-10-24T19:30:32.102Z,1.38
2022-10-24T19:32:58.521Z,1.38
2022-10-24T19:35:24.973Z,1.23
2022-10-24T19:37:51.309Z,1.02
2022-10-24T19:40:17.775Z,1.73
2022-10-24T19:42:44.130Z,1.42
2022-10-24T19:45:10.549Z,2.03
2022-10-24T19:47:36.875Z,1.00
2022-10-24T19:50:03.407Z,1.42
2022-10-24T19:52:29.749Z,1.17
2022-10-24T19:54:56.098Z,1.30
2022-10-24T19:57:22.519Z,1.33
2022-10-24T19:59:48.889Z,1.45
2022-10-24T20:02:15.379Z,1.27
2022-10-24T20:04:43.444Z,1.52
2022-10-24T20:07:13.555Z,1.00
2022-10-24T20:09:39.888Z,0.82
2022-10-24T20:12:06.527Z,0.82
2022-10-24T20:14:32.960Z,1.52
2022-10-24T20:16:59.343Z,1.65
2022-10-24T20:19:25.717Z,1.60
2022-10-24T20:21:52.096Z,1.35
2022-10-24T20:24:18.468Z,1.60
2022-10-24T20:26:44.808Z,1.33
2022-10-24T20:29:14.846Z,1.08
2022-10-24T20:31:43.225Z,1.55
2022-10-24T20:34:09.909Z,1.13
2022-10-24T20:36:38.009Z,2.35
2022-10-24T20:39:04.725Z,1.50
2022-10-24T20:41:31.044Z,2.55
2022-10-24T20:43:57.504Z,1.40
2022-10-24T20:46:23.922Z,1.67
2022-10-24T20:48:50.301Z,1.20
2022-10-24T20:51:18.062Z,1.60
2022-10-24T20:53:44.451Z,1.17
2022-10-24T20:56:12.107Z,0.90
2022-10-24T20:58:39.925Z,1.20
2022-10-24T21:01:07.364Z,1.77
2022-10-24T21:03:34.205Z,1.13
2022-10-24T21:06:00.614Z,1.02
2022-10-24T21:08:26.966Z,1.00
2022-10-24T21:10:53.272Z,1.17
2022-10-24T21:13:19.772Z,1.10
2022-10-24T21:15:46.165Z,0.90
2022-10-24T21:18:12.527Z,1.55
2022-10-24T21:20:38.979Z,1.45
2022-10-24T21:23:05.365Z,0.80
2022-10-24T21:25:31.902Z,1.08
2022-10-24T21:27:58.396Z,1.10
2022-10-24T21:30:25.144Z,1.02
2022-10-24T21:32:51.542Z,0.60
2022-10-24T21:35:17.861Z,0.95
2022-10-24T21:37:44.455Z,0.93
2022-10-24T21:40:11.377Z,0.93
2022-10-24T21:42:37.780Z,1.40
2022-10-24T21:45:04.514Z,1.15
2022-10-24T21:47:30.958Z,0.80
2022-10-24T21:49:57.327Z,0.70
2022-10-24T21:52:23.646Z,0.80
2022-10-24T21:54:49.999Z,1.33
2022-10-24T21:57:16.312Z,0.90
2022-10-24T21:59:42.685Z,0.90
2022-10-24T22:02:09.396Z,1.00
2022-10-24T22:04:36.154Z,0.95
2022-10-24T22:07:03.012Z,0.93
2022-10-24T22:09:29.516Z,1.23
2022-10-24T22:11:57.866Z,1.13
2022-10-24T22:14:24.363Z,0.98
2022-10-24T22:16:50.827Z,1.95
2022-10-24T22:19:17.135Z,0.80
2022-10-24T22:21:44.706Z,0.70
2022-10-24T22:24:14.389Z,1.15
2022-10-24T22:26:41.234Z,0.93
2022-10-24T22:29:09.036Z,1.00
2022-10-24T22:31:35.783Z,0.75
2022-10-24T22:34:02.286Z,1.05
2022-10-24T22:36:31.479Z,1.48
2022-10-24T22:39:00.106Z,0.80
2022-10-24T22:41:27.645Z,0.93
2022-10-24T22:43:54.166Z,1.35
2022-10-24T22:46:51.624Z,1.33
2022-10-24T22:49:33.278Z,1.20
2022-10-24T22:51:59.716Z,0.75
2022-10-24T22:54:29.591Z,1.02
2022-10-24T22:56:56.053Z,1.02
2022-10-24T22:59:22.620Z,1.20
2022-10-24T23:01:55.214Z,1.10
2022-10-24T23:04:36.965Z,1.45
2022-10-24T23:07:23.723Z,1.20
2022-10-24T23:09:53.318Z,1.27
2022-10-24T23:12:20.635Z,1.23
2022-10-24T23:14:47.361Z,1.55
2022-10-24T23:17:24.926Z,1.35
2022-10-24T23:19:51.707Z,1.08
2022-10-24T23:22:20.926Z,1.27
2022-10-24T23:24:47.379Z,1.00
2022-10-24T23:27:20.652Z,0.95
2022-10-24T23:29:47.652Z,1.02
2022-10-24T23:32:25.080Z,1.20
2022-10-24T23:34:52.497Z,1.52
2022-10-24T23:37:21.929Z,1.80
2022-10-24T23:39:48.523Z,1.83
2022-10-24T23:42:15.084Z,1.38
2022-10-24T23:44:41.579Z,1.13
2022-10-24T23:47:07.922Z,1.63
2022-10-24T23:49:44.867Z,1.95
2022-10-24T23:52:28.638Z,2.05
2022-10-24T23:54:55.213Z,1.52
2022-10-24T23:57:21.693Z,1.50
2022-10-24T23:59:48.028Z,1.70
